sensor_id;sensor_type;location;lat;lon;timestamp;pressure;altitude;pressure_sealevel;temperature;humidity
17950;BME280;9100;48.700;9.316;2023-11-18T00:00:11;98283.8;;;6.12;100
17950;BME280;9100;48.700;9.316;2023-11-18T00:01:11;98275.3;;;6.11;100
17950;BME280;9100;48.700;9.316;2023-11-18T00:02:11;98275.3;;;6.11;100
17950;BME280;9100;48.700;9.316;2023-11-18T00:03:11;98285.40000000001;;;6.13;100
17950;BME280;9100;48.700;9.316;2023-11-18T00:04:02;98284.7;;;6.11;100
17950;BME280;9100;48.700;9.316;2023-11-18T00:04:11;98285.7;;;6.1;100
17950;BME280;9100;48.700;9.316;2023-11-18T00:05:11;98285.5;;;6.11;100
17950;BME280;9100;48.700;9.316;2023-11-18T00:06:11;98278.8;;;6.1;100
17950;BME280;9100;48.700;9.316;2023-11-18T00:07:11;98283.1;;;6.1;100
17950;BME280;9100;48.700;9.316;2023-11-18T00:08:11;98274.7;;;6.09;100
17950;BME280;9100;48.700;9.316;2023-11-18T00:09:02;98279.1;;;6.07;100
17950;BME280;9100;48.700;9.316;2023-11-18T00:09:11;98279.1;;;6.07;100
17950;BME280;9100;48.700;9.316;2023-11-18T00:10:11;98283.1;;;6.1;100
17950;BME280;9100;48.700;9.316;2023-11-18T00:11:11;98266.8;;;6.03;100
17950;BME280;9100;48.700;9.316;2023-11-18T00:12:11;98284;;;6.09;100
17950;BME280;9100;48.700;9.316;2023-11-18T00:13:11;98275;;;6.06;100
17950;BME280;9100;48.700;9.316;2023-11-18T00:14:02;98281.8;;;6.06;100
17950;BME280;9100;48.700;9.316;2023-11-18T00:14:11;98284.3;;;6.06;100
17950;BME280;9100;48.700;9.316;2023-11-18T00:15:11;98278.3;;;6.07;100
17950;BME280;9100;48.700;9.316;2023-11-18T00:16:11;98277.4;;;6.08;100
17950;BME280;9100;48.700;9.316;2023-11-18T00:17:11;98275.59999999999;;;6.08;100
17950;BME280;9100;48.700;9.316;2023-11-18T00:18:11;98271.1;;;6.12;100
17950;BME280;9100;48.700;9.316;2023-11-18T00:19:02;98276.2;;;6.12;100
17950;BME280;9100;48.700;9.316;2023-11-18T00:19:11;98272.79999999999;;;6.11;100
17950;BME280;9100;48.700;9.316;2023-11-18T00:20:11;98273.29999999999;;;6.15;100
17950;BME280;9100;48.700;9.316;2023-11-18T00:21:11;98274;;;6.17;100
17950;BME280;9100;48.700;9.316;2023-11-18T00:22:11;98270.5;;;6.18;100
17950;BME280;9100;48.700;9.316;2023-11-18T00:23:11;98275.59999999999;;;6.18;100
17950;BME280;9100;48.700;9.316;2023-11-18T00:24:02;98277.5;;;6.16;100
17950;BME280;9100;48.700;9.316;2023-11-18T00:24:11;98274.1;;;6.15;100
17950;BME280;9100;48.700;9.316;2023-11-18T00:25:11;98263.9;;;6.17;100
17950;BME280;9100;48.700;9.316;2023-11-18T00:26:11;98263.9;;;6.17;100
17950;BME280;9100;48.700;9.316;2023-11-18T00:27:11;98262.5;;;6.13;100
17950;BME280;9100;48.700;9.316;2023-11-18T00:28:11;98269.2;;;6.14;100
17950;BME280;9100;48.700;9.316;2023-11-18T00:29:02;98267.7;;;6.11;100
17950;BME280;9100;48.700;9.316;2023-11-18T00:29:11;98267.6;;;6.13;100
17950;BME280;9100;48.700;9.316;2023-11-18T00:30:11;98262.5;;;6.13;100
17950;BME280;9100;48.700;9.316;2023-11-18T00:31:11;98269.2;;;6.14;100
17950;BME280;9100;48.700;9.316;2023-11-18T00:32:11;98265.7;;;6.15;100
17950;BME280;9100;48.700;9.316;2023-11-18T00:33:11;98267.3;;;6.16;100
17950;BME280;9100;48.700;9.316;2023-11-18T00:34:02;98263.3;;;6.13;100
17950;BME280;9100;48.700;9.316;2023-11-18T00:34:11;98265.09999999999;;;6.13;100
17950;BME280;9100;48.700;9.316;2023-11-18T00:35:11;98258.90000000001;;;6.15;100
17950;BME280;9100;48.700;9.316;2023-11-18T00:36:11;98253.8;;;6.15;100
17950;BME280;9100;48.700;9.316;2023-11-18T00:37:11;98258.8;;;6.17;100
17950;BME280;9100;48.700;9.316;2023-11-18T00:38:11;98258.8;;;6.17;100
17950;BME280;9100;48.700;9.316;2023-11-18T00:39:02;98261.5;;;6.15;100
17950;BME280;9100;48.700;9.316;2023-11-18T00:39:11;98262.2;;;6.16;100
17950;BME280;9100;48.700;9.316;2023-11-18T00:40:11;98257.8;;;6.18;100
17950;BME280;9100;48.700;9.316;2023-11-18T00:41:11;98255.3;;;6.18;100
17950;BME280;9100;48.700;9.316;2023-11-18T00:42:11;98262;;;6.19;100
17950;BME280;9100;48.700;9.316;2023-11-18T00:43:11;98266.2;;;6.18;100
17950;BME280;9100;48.700;9.316;2023-11-18T00:44:02;98262.40000000001;;;6.14;100
17950;BME280;9100;48.700;9.316;2023-11-18T00:44:11;98267.3;;;6.16;100
17950;BME280;9100;48.700;9.316;2023-11-18T00:45:11;98261.3;;;6.17;100
17950;BME280;9100;48.700;9.316;2023-11-18T00:46:11;98264.70000000001;;;6.17;100
17950;BME280;9100;48.700;9.316;2023-11-18T00:47:11;98260.40000000001;;;6.18;100
17950;BME280;9100;48.700;9.316;2023-11-18T00:48:11;98261.2;;;6.18;100
17950;BME280;9100;48.700;9.316;2023-11-18T00:49:02;98267.2;;;6.17;100
17950;BME280;9100;48.700;9.316;2023-11-18T00:49:11;98256.3;;;6.17;100
17950;BME280;9100;48.700;9.316;2023-11-18T00:50:11;98263.9;;;6.17;100
17950;BME280;9100;48.700;9.316;2023-11-18T00:51:11;98251.8;;;6.19;100
17950;BME280;9100;48.700;9.316;2023-11-18T00:52:11;98253.59999999999;;;6.18;100
17950;BME280;9100;48.700;9.316;2023-11-18T00:53:11;98251;;;6.18;100
17950;BME280;9100;48.700;9.316;2023-11-18T00:54:02;98255.3;;;6.18;100
17950;BME280;9100;48.700;9.316;2023-11-18T00:54:11;98253.7;;;6.17;100
17950;BME280;9100;48.700;9.316;2023-11-18T00:55:11;98267.1;;;6.19;100
17950;BME280;9100;48.700;9.316;2023-11-18T00:56:12;98250.9;;;6.2;100
17950;BME280;9100;48.700;9.316;2023-11-18T00:57:11;98253.4;;;6.2;100
17950;BME280;9100;48.700;9.316;2023-11-18T00:58:11;98252.59999999999;;;6.19;100
17950;BME280;9100;48.700;9.316;2023-11-18T00:59:02;98258.8;;;6.17;100
17950;BME280;9100;48.700;9.316;2023-11-18T00:59:11;98255.3;;;6.18;100
17950;BME280;9100;48.700;9.316;2023-11-18T01:00:11;98262.09999999999;;;6.17;100
17950;BME280;9100;48.700;9.316;2023-11-18T01:01:11;98260.40000000001;;;6.18;100
17950;BME280;9100;48.700;9.316;2023-11-18T01:02:11;98265.4;;;6.18;100
17950;BME280;9100;48.700;9.316;2023-11-18T01:03:11;98262.2;;;6.16;100
17950;BME280;9100;48.700;9.316;2023-11-18T01:04:02;98254.9;;;6.13;100
17950;BME280;9100;48.700;9.316;2023-11-18T01:04:11;98259.79999999999;;;6.14;100
17950;BME280;9100;48.700;9.316;2023-11-18T01:05:11;98255.6;;;6.15;100
17950;BME280;9100;48.700;9.316;2023-11-18T01:06:11;98257.1;;;6.17;100
17950;BME280;9100;48.700;9.316;2023-11-18T01:07:11;98259.6;;;6.17;100
17950;BME280;9100;48.700;9.316;2023-11-18T01:08:11;98252.9;;;6.16;100
17950;BME280;9100;48.700;9.316;2023-11-18T01:09:02;98255.6;;;6.15;100
17950;BME280;9100;48.700;9.316;2023-11-18T01:09:11;98261.5;;;6.15;100
17950;BME280;9100;48.700;9.316;2023-11-18T01:10:11;98263.9;;;6.17;100
17950;BME280;9100;48.700;9.316;2023-11-18T01:11:15;98247;;;6.16;100
17950;BME280;9100;48.700;9.316;2023-11-18T01:12:11;98254.5;;;6.17;100
17950;BME280;9100;48.700;9.316;2023-11-18T01:13:11;98257.2;;;6.16;100
17950;BME280;9100;48.700;9.316;2023-11-18T01:14:02;98254.8;;;6.14;100
17950;BME280;9100;48.700;9.316;2023-11-18T01:14:11;98217.4;;;5.88;100
17950;BME280;9100;48.700;9.316;2023-11-18T01:15:11;98255.4;;;6.16;100
17950;BME280;9100;48.700;9.316;2023-11-18T01:16:11;98249.40000000001;;;6.17;100
17950;BME280;9100;48.700;9.316;2023-11-18T01:17:11;98249.3;;;6.19;100
17950;BME280;9100;48.700;9.316;2023-11-18T01:18:11;98247.7;;;6.18;100
17950;BME280;9100;48.700;9.316;2023-11-18T01:19:02;98253.7;;;6.17;100
17950;BME280;9100;48.700;9.316;2023-11-18T01:19:11;98156.9;;;5.54;100
17950;BME280;9100;48.700;9.316;2023-11-18T01:20:11;98251;;;6.18;100
17950;BME280;9100;48.700;9.316;2023-11-18T01:21:11;98256.1;;;6.18;100
17950;BME280;9100;48.700;9.316;2023-11-18T01:22:11;98253.2;;;6.23;100
17950;BME280;9100;48.700;9.316;2023-11-18T01:23:11;98250.8;;;6.21;100
17950;BME280;9100;48.700;9.316;2023-11-18T01:24:02;98246.7;;;6.19;100
17950;BME280;9100;48.700;9.316;2023-11-18T01:24:11;98253.4;;;6.2;100
17950;BME280;9100;48.700;9.316;2023-11-18T01:25:11;98250.09999999999;;;6.19;100
17950;BME280;9100;48.700;9.316;2023-11-18T01:26:11;98251.70000000001;;;6.2;100
17950;BME280;9100;48.700;9.316;2023-11-18T01:27:11;98250.9;;;6.2;100
17950;BME280;9100;48.700;9.316;2023-11-18T01:28:11;98252.59999999999;;;6.19;100
17950;BME280;9100;48.700;9.316;2023-11-18T01:29:02;98261.3;;;6.17;100
17950;BME280;9100;48.700;9.316;2023-11-18T01:29:11;98253.7;;;6.17;100
17950;BME280;9100;48.700;9.316;2023-11-18T01:30:11;98260.40000000001;;;6.18;100
17950;BME280;9100;48.700;9.316;2023-11-18T01:31:11;98262;;;6.19;100
17950;BME280;9100;48.700;9.316;2023-11-18T01:32:11;98266.2;;;6.18;100
17950;BME280;9100;48.700;9.316;2023-11-18T01:33:11;98267.1;;;6.19;100
17950;BME280;9100;48.700;9.316;2023-11-18T01:34:02;98267.3;;;6.16;100
17950;BME280;9100;48.700;9.316;2023-11-18T01:34:11;98263.9;;;6.17;100
17950;BME280;9100;48.700;9.316;2023-11-18T01:35:11;98262.09999999999;;;6.17;100
17950;BME280;9100;48.700;9.316;2023-11-18T01:36:11;98265.4;;;6.18;100
17950;BME280;9100;48.700;9.316;2023-11-18T01:37:11;98270.5;;;6.18;100
17950;BME280;9100;48.700;9.316;2023-11-18T01:38:11;98275.59999999999;;;6.18;100
17950;BME280;9100;48.700;9.316;2023-11-18T01:39:02;98274;;;6.17;100
17950;BME280;9100;48.700;9.316;2023-11-18T01:39:11;98274;;;6.17;100
17950;BME280;9100;48.700;9.316;2023-11-18T01:40:11;98271.3;;;6.18;100
17950;BME280;9100;48.700;9.316;2023-11-18T01:41:11;98272.1;;;6.19;100
17950;BME280;9100;48.700;9.316;2023-11-18T01:42:11;98278;;;6.19;100
17950;BME280;9100;48.700;9.316;2023-11-18T01:43:11;98276.9;;;6.22;100
17950;BME280;9100;48.700;9.316;2023-11-18T01:44:02;98270.3;;;6.21;100
17950;BME280;9100;48.700;9.316;2023-11-18T01:44:11;98281.1;;;6.23;100
17950;BME280;9100;48.700;9.316;2023-11-18T01:45:11;98275.09999999999;;;6.24;100
17950;BME280;9100;48.700;9.316;2023-11-18T01:46:11;98276.9;;;6.22;100
17950;BME280;9100;48.700;9.316;2023-11-18T01:47:11;98281.1;;;6.23;100
17950;BME280;9100;48.700;9.316;2023-11-18T01:48:11;98275.09999999999;;;6.24;100
17950;BME280;9100;48.700;9.316;2023-11-18T01:49:02;98273.5;;;6.23;100
17950;BME280;9100;48.700;9.316;2023-11-18T01:49:11;98273.5;;;6.23;100
17950;BME280;9100;48.700;9.316;2023-11-18T01:50:11;98281.9;;;6.23;100
17950;BME280;9100;48.700;9.316;2023-11-18T01:51:11;98270.8;;;6.24;100
17950;BME280;9100;48.700;9.316;2023-11-18T01:52:11;98275.09999999999;;;6.24;100
17950;BME280;9100;48.700;9.316;2023-11-18T01:53:11;98275.9;;;6.24;100
17950;BME280;9100;48.700;9.316;2023-11-18T01:54:02;98266.8;;;6.22;100
17950;BME280;9100;48.700;9.316;2023-11-18T01:54:11;98270.9;;;6.23;100
17950;BME280;9100;48.700;9.316;2023-11-18T01:55:11;98265.7;;;6.24;100
17950;BME280;9100;48.700;9.316;2023-11-18T01:56:11;98270;;;6.24;100
17950;BME280;9100;48.700;9.316;2023-11-18T01:57:11;98275.09999999999;;;6.24;100
17950;BME280;9100;48.700;9.316;2023-11-18T01:58:11;98270;;;6.24;100
17950;BME280;9100;48.700;9.316;2023-11-18T01:59:02;98272.7;;;6.22;100
17950;BME280;9100;48.700;9.316;2023-11-18T01:59:11;98267.6;;;6.22;100
17950;BME280;9100;48.700;9.316;2023-11-18T02:00:11;98270;;;6.24;100
17950;BME280;9100;48.700;9.316;2023-11-18T02:01:11;98265.59999999999;;;6.26;100
17950;BME280;9100;48.700;9.316;2023-11-18T02:02:11;98275.5;;;6.29;100
17950;BME280;9100;48.700;9.316;2023-11-18T02:03:11;98267.9;;;6.29;100
17950;BME280;9100;48.700;9.316;2023-11-18T02:04:02;98265.59999999999;;;6.26;100
17950;BME280;9100;48.700;9.316;2023-11-18T02:04:11;98258.8;;;6.26;100
17950;BME280;9100;48.700;9.316;2023-11-18T02:05:11;98267.9;;;6.29;100
17950;BME280;9100;48.700;9.316;2023-11-18T02:06:11;98265.3;;;6.29;100
17950;BME280;9100;48.700;9.316;2023-11-18T02:07:11;98264.4;;;6.3;100
17950;BME280;9100;48.700;9.316;2023-11-18T02:08:11;98267.9;;;6.29;100
17950;BME280;9100;48.700;9.316;2023-11-18T02:09:02;98258;;;6.26;100
17950;BME280;9100;48.700;9.316;2023-11-18T02:09:11;98258;;;6.26;100
17950;BME280;9100;48.700;9.316;2023-11-18T02:10:11;98260.40000000001;;;6.27;100
17950;BME280;9100;48.700;9.316;2023-11-18T02:11:13;98258.8;;;6.26;100
17950;BME280;9100;48.700;9.316;2023-11-18T02:12:15;98256.1;;;6.28;100
17950;BME280;9100;48.700;9.316;2023-11-18T02:13:12;98254.2;;;6.3;100
17950;BME280;9100;48.700;9.316;2023-11-18T02:14:02;98258.6;;;6.28;100
17950;BME280;9100;48.700;9.316;2023-11-18T02:14:13;98257.7;;;6.29;100
17950;BME280;9100;48.700;9.316;2023-11-18T02:15:11;98257.5;;;6.3;100
17950;BME280;9100;48.700;9.316;2023-11-18T02:16:11;98258.4;;;6.31;100
17950;BME280;9100;48.700;9.316;2023-11-18T02:17:12;98269.2;;;6.33;100
17950;BME280;9100;48.700;9.316;2023-11-18T02:18:11;98260.79999999999;;;6.32;100
17950;BME280;9100;48.700;9.316;2023-11-18T02:19:02;98258.4;;;6.31;100
17950;BME280;9100;48.700;9.316;2023-11-18T02:19:15;98263.4;;;6.31;100
17950;BME280;9100;48.700;9.316;2023-11-18T02:20:11;98255.8;;;6.31;100
17950;BME280;9100;48.700;9.316;2023-11-18T02:21:11;98259;;;6.33;100
17950;BME280;9100;48.700;9.316;2023-11-18T02:22:11;98264.09999999999;;;6.33;100
17950;BME280;9100;48.700;9.316;2023-11-18T02:23:11;98263.3;;;6.32;100
17950;BME280;9100;48.700;9.316;2023-11-18T02:24:02;98264.20000000001;;;6.31;100
17950;BME280;9100;48.700;9.316;2023-11-18T02:24:11;98255.8;;;6.31;100
17950;BME280;9100;48.700;9.316;2023-11-18T02:25:12;98256.6;;;6.31;100
17950;BME280;9100;48.700;9.316;2023-11-18T02:26:11;98266;;;6.31;100
17950;BME280;9100;48.700;9.316;2023-11-18T02:27:11;98256.6;;;6.31;100
17950;BME280;9100;48.700;9.316;2023-11-18T02:28:11;98257.4;;;6.32;100
17950;BME280;9100;48.700;9.316;2023-11-18T02:29:02;98250.7;;;6.31;100
17950;BME280;9100;48.700;9.316;2023-11-18T02:29:11;98258.4;;;6.31;100
17950;BME280;9100;48.700;9.316;2023-11-18T02:30:11;98260;;;6.32;100
17950;BME280;9100;48.700;9.316;2023-11-18T02:31:13;98259.79999999999;;;6.33;100
17950;BME280;9100;48.700;9.316;2023-11-18T02:32:13;98248.7;;;6.34;100
17950;BME280;9100;48.700;9.316;2023-11-18T02:33:14;98253.9;;;6.33;100
17950;BME280;9100;48.700;9.316;2023-11-18T02:34:04;98243;;;6.32;100
17950;BME280;9100;48.700;9.316;2023-11-18T02:34:12;98240.59999999999;;;6.31;100
17950;BME280;9100;48.700;9.316;2023-11-18T02:35:13;98237;;;6.33;100
17950;BME280;9100;48.700;9.316;2023-11-18T02:36:13;98228.9;;;6.38;100
17950;BME280;9100;48.700;9.316;2023-11-18T02:37:11;98228.8;;;6.4;100
17950;BME280;9100;48.700;9.316;2023-11-18T02:38:11;98231.2;;;6.41;100
17950;BME280;9100;48.700;9.316;2023-11-18T02:39:03;98230.5;;;6.39;100
17950;BME280;9100;48.700;9.316;2023-11-18T02:39:12;98228.8;;;6.4;100
17950;BME280;9100;48.700;9.316;2023-11-18T02:40:12;98228;;;6.39;100
17950;BME280;9100;48.700;9.316;2023-11-18T02:41:11;98224.8;;;6.37;100
17950;BME280;9100;48.700;9.316;2023-11-18T02:42:12;98226.4;;;6.38;100
17950;BME280;9100;48.700;9.316;2023-11-18T02:43:11;98228.8;;;6.4;100
17950;BME280;9100;48.700;9.316;2023-11-18T02:44:02;98231.5;;;6.38;100
17950;BME280;9100;48.700;9.316;2023-11-18T02:44:11;98226.4;;;6.38;100
17950;BME280;9100;48.700;9.316;2023-11-18T02:45:12;98221.3;;;6.38;100
17950;BME280;9100;48.700;9.316;2023-11-18T02:46:11;98222.1;;;6.39;100
17950;BME280;9100;48.700;9.316;2023-11-18T02:47:11;98231.5;;;6.38;100
17950;BME280;9100;48.700;9.316;2023-11-18T02:48:11;98230.7;;;6.38;100
17950;BME280;9100;48.700;9.316;2023-11-18T02:49:02;98223.2;;;6.36;100
17950;BME280;9100;48.700;9.316;2023-11-18T02:49:11;98223.2;;;6.36;100
17950;BME280;9100;48.700;9.316;2023-11-18T02:50:11;98219.7;;;6.37;100
17950;BME280;9100;48.700;9.316;2023-11-18T02:51:11;98219.7;;;6.37;100
17950;BME280;9100;48.700;9.316;2023-11-18T02:52:11;98219.8;;;6.36;100
17950;BME280;9100;48.700;9.316;2023-11-18T02:53:11;98228.3;;;6.36;100
17950;BME280;9100;48.700;9.316;2023-11-18T02:54:02;98226.70000000001;;;6.35;100
17950;BME280;9100;48.700;9.316;2023-11-18T02:54:11;98227.5;;;6.36;100
17950;BME280;9100;48.700;9.316;2023-11-18T02:55:11;98227.3;;;6.37;100
17950;BME280;9100;48.700;9.316;2023-11-18T02:56:11;98222.1;;;6.39;100
17950;BME280;9100;48.700;9.316;2023-11-18T02:57:11;98222.90000000001;;;6.39;100
17950;BME280;9100;48.700;9.316;2023-11-18T02:58:11;98202.4;;;6.32;100
17950;BME280;9100;48.700;9.316;2023-11-18T02:59:02;98220.5;;;6.38;100
17950;BME280;9100;48.700;9.316;2023-11-18T02:59:11;98215.3;;;6.39;100
17950;BME280;9100;48.700;9.316;2023-11-18T03:00:11;98214.4;;;6.4;100
17950;BME280;9100;48.700;9.316;2023-11-18T03:01:11;98222.6;;;6.42;100
17950;BME280;9100;48.700;9.316;2023-11-18T03:02:11;98222.6;;;6.42;100
17950;BME280;9100;48.700;9.316;2023-11-18T03:03:11;98218.4;;;6.43;100
17950;BME280;9100;48.700;9.316;2023-11-18T03:04:02;98222.6;;;6.42;100
17950;BME280;9100;48.700;9.316;2023-11-18T03:04:11;98222.6;;;6.42;100
17950;BME280;9100;48.700;9.316;2023-11-18T03:05:11;98219.2;;;6.43;100
17950;BME280;9100;48.700;9.316;2023-11-18T03:06:11;98219.2;;;6.43;100
17950;BME280;9100;48.700;9.316;2023-11-18T03:07:11;98222.5;;;6.44;100
17950;BME280;9100;48.700;9.316;2023-11-18T03:08:11;98222.6;;;6.42;100
17950;BME280;9100;48.700;9.316;2023-11-18T03:09:02;98221;;;6.41;100
17950;BME280;9100;48.700;9.316;2023-11-18T03:09:11;98218.5;;;6.41;100
17950;BME280;9100;48.700;9.316;2023-11-18T03:10:11;98221.7;;;6.43;100
17950;BME280;9100;48.700;9.316;2023-11-18T03:11:11;98219.3;;;6.42;100
17950;BME280;9100;48.700;9.316;2023-11-18T03:12:11;98217.5;;;6.42;100
17950;BME280;9100;48.700;9.316;2023-11-18T03:13:11;98216.9;;;6.4;100
17950;BME280;9100;48.700;9.316;2023-11-18T03:14:02;98214.5;;;6.39;100
17950;BME280;9100;48.700;9.316;2023-11-18T03:14:11;98217;;;6.39;100
17950;BME280;9100;48.700;9.316;2023-11-18T03:15:11;98216.2;;;6.38;100
17950;BME280;9100;48.700;9.316;2023-11-18T03:16:11;98221.2;;;6.4;100
17950;BME280;9100;48.700;9.316;2023-11-18T03:17:11;98216.9;;;6.4;100
17950;BME280;9100;48.700;9.316;2023-11-18T03:18:11;98223.6;;;6.41;100
17950;BME280;9100;48.700;9.316;2023-11-18T03:19:02;98218.1;;;6.36;100
17950;BME280;9100;48.700;9.316;2023-11-18T03:19:11;98212.2;;;6.36;100
17950;BME280;9100;48.700;9.316;2023-11-18T03:20:11;98211.40000000001;;;6.35;100
17950;BME280;9100;48.700;9.316;2023-11-18T03:21:11;98213.2;;;6.34;100
17950;BME280;9100;48.700;9.316;2023-11-18T03:22:11;98208.1;;;6.34;100
17950;BME280;9100;48.700;9.316;2023-11-18T03:23:11;98198;;;6.33;100
17950;BME280;9100;48.700;9.316;2023-11-18T03:24:02;98203.3;;;6.31;100
17950;BME280;9100;48.700;9.316;2023-11-18T03:24:11;98208.2;;;6.33;100
17950;BME280;9100;48.700;9.316;2023-11-18T03:25:11;98202.5;;;6.31;100
17950;BME280;9100;48.700;9.316;2023-11-18T03:26:11;98202.59999999999;;;6.29;100
17950;BME280;9100;48.700;9.316;2023-11-18T03:27:11;98206.1;;;6.28;100
17950;BME280;9100;48.700;9.316;2023-11-18T03:28:11;98200.2;;;6.28;100
17950;BME280;9100;48.700;9.316;2023-11-18T03:29:02;98201.2;;;6.27;100
17950;BME280;9100;48.700;9.316;2023-11-18T03:29:11;98203.7;;;6.27;100
17950;BME280;9100;48.700;9.316;2023-11-18T03:30:11;98199.40000000001;;;6.27;100
17950;BME280;9100;48.700;9.316;2023-11-18T03:31:11;98199.40000000001;;;6.27;100
17950;BME280;9100;48.700;9.316;2023-11-18T03:32:11;98195.1;;;6.28;100
17950;BME280;9100;48.700;9.316;2023-11-18T03:33:11;98200.2;;;6.28;100
17950;BME280;9100;48.700;9.316;2023-11-18T03:34:02;98195.1;;;6.28;100
17950;BME280;9100;48.700;9.316;2023-11-18T03:34:11;98196.1;;;6.27;100
17950;BME280;9100;48.700;9.316;2023-11-18T03:35:11;98200.2;;;6.28;100
17950;BME280;9100;48.700;9.316;2023-11-18T03:36:11;98209.6;;;6.27;100
17950;BME280;9100;48.700;9.316;2023-11-18T03:37:11;98200.2;;;6.28;100
17950;BME280;9100;48.700;9.316;2023-11-18T03:38:11;98203.7;;;6.27;100
17950;BME280;9100;48.700;9.316;2023-11-18T03:39:02;98204;;;6.24;100
17950;BME280;9100;48.700;9.316;2023-11-18T03:39:11;98204.8;;;6.24;100
17950;BME280;9100;48.700;9.316;2023-11-18T03:40:12;98203.2;;;6.23;100
17950;BME280;9100;48.700;9.316;2023-11-18T03:41:11;98187.90000000001;;;6.23;100
17950;BME280;9100;48.700;9.316;2023-11-18T03:42:11;98195;;;6.2;100
17950;BME280;9100;48.700;9.316;2023-11-18T03:43:11;98203.5;;;6.2;100
17950;BME280;9100;48.700;9.316;2023-11-18T03:44:02;98199.40000000001;;;6.18;100
17950;BME280;9100;48.700;9.316;2023-11-18T03:44:11;98189.3;;;6.18;100
17950;BME280;9100;48.700;9.316;2023-11-18T03:45:11;98199.40000000001;;;6.18;100
17950;BME280;9100;48.700;9.316;2023-11-18T03:46:11;98200.2;;;6.18;100
17950;BME280;9100;48.700;9.316;2023-11-18T03:47:11;98206.4;;;6.16;100
17950;BME280;9100;48.700;9.316;2023-11-18T03:48:11;98203;;;6.15;100
17950;BME280;9100;48.700;9.316;2023-11-18T03:49:02;98210;;;6.13;100
17950;BME280;9100;48.700;9.316;2023-11-18T03:49:11;98206.7;;;6.13;100
17950;BME280;9100;48.700;9.316;2023-11-18T03:50:11;98202.4;;;6.13;100
17950;BME280;9100;48.700;9.316;2023-11-18T03:51:11;98203.2;;;6.14;100
17950;BME280;9100;48.700;9.316;2023-11-18T03:52:11;98209.1;;;6.14;100
17950;BME280;9100;48.700;9.316;2023-11-18T03:53:11;98210.79999999999;;;6.14;100
17950;BME280;9100;48.700;9.316;2023-11-18T03:54:02;98210.1;;;6.12;100
17950;BME280;9100;48.700;9.316;2023-11-18T03:54:11;98215.20000000001;;;6.12;100
17950;BME280;9100;48.700;9.316;2023-11-18T03:55:11;98210;;;6.13;100
17950;BME280;9100;48.700;9.316;2023-11-18T03:56:16;98206.7;;;6.13;100
17950;BME280;9100;48.700;9.316;2023-11-18T03:57:11;98211.5;;;6.16;100
17950;BME280;9100;48.700;9.316;2023-11-18T03:58:11;98220.7;;;6.17;100
17950;BME280;9100;48.700;9.316;2023-11-18T03:59:02;98221.6;;;6.16;100
17950;BME280;9100;48.700;9.316;2023-11-18T03:59:11;98215.59999999999;;;6.17;100
17950;BME280;9100;48.700;9.316;2023-11-18T04:00:11;98218;;;6.18;100
17950;BME280;9100;48.700;9.316;2023-11-18T04:01:11;98215.3;;;6.2;100
17950;BME280;9100;48.700;9.316;2023-11-18T04:02:11;98216.09999999999;;;6.2;100
17950;BME280;9100;48.700;9.316;2023-11-18T04:03:11;98217.9;;;6.2;100
17950;BME280;9100;48.700;9.316;2023-11-18T04:04:02;98207;;;6.18;100
17950;BME280;9100;48.700;9.316;2023-11-18T04:04:11;98208.7;;;6.19;100
17950;BME280;9100;48.700;9.316;2023-11-18T04:05:12;98212;;;6.19;100
17950;BME280;9100;48.700;9.316;2023-11-18T04:06:11;98215.3;;;6.2;100
17950;BME280;9100;48.700;9.316;2023-11-18T04:07:11;98214.4;;;6.21;100
17950;BME280;9100;48.700;9.316;2023-11-18T04:08:11;98212.8;;;6.2;100
17950;BME280;9100;48.700;9.316;2023-11-18T04:09:02;98211.2;;;6.19;100
17950;BME280;9100;48.700;9.316;2023-11-18T04:09:11;98209.6;;;6.18;100
17950;BME280;9100;48.700;9.316;2023-11-18T04:10:11;98215.3;;;6.2;100
17950;BME280;9100;48.700;9.316;2023-11-18T04:11:11;98212.8;;;6.2;100
17950;BME280;9100;48.700;9.316;2023-11-18T04:12:11;98212;;;6.19;100
17950;BME280;9100;48.700;9.316;2023-11-18T04:13:11;98201.8;;;6.19;100
17950;BME280;9100;48.700;9.316;2023-11-18T04:14:02;98207;;;6.18;100
17950;BME280;9100;48.700;9.316;2023-11-18T04:14:11;98212.09999999999;;;6.18;100
17950;BME280;9100;48.700;9.316;2023-11-18T04:15:11;98211.90000000001;;;6.21;100
17950;BME280;9100;48.700;9.316;2023-11-18T04:16:11;98215.9;;;6.23;100
17950;BME280;9100;48.700;9.316;2023-11-18T04:17:11;98208.3;;;6.23;100
17950;BME280;9100;48.700;9.316;2023-11-18T04:18:11;98204.9;;;6.23;100
17950;BME280;9100;48.700;9.316;2023-11-18T04:19:02;98216.8;;;6.22;100
17950;BME280;9100;48.700;9.316;2023-11-18T04:19:11;98211.7;;;6.22;100
17950;BME280;9100;48.700;9.316;2023-11-18T04:20:11;98212.40000000001;;;6.24;100
17950;BME280;9100;48.700;9.316;2023-11-18T04:21:12;98208.1;;;6.25;100
17950;BME280;9100;48.700;9.316;2023-11-18T04:22:11;98206.2;;;6.27;100
17950;BME280;9100;48.700;9.316;2023-11-18T04:23:11;98210.5;;;6.26;100
17950;BME280;9100;48.700;9.316;2023-11-18T04:24:02;98213.2;;;6.25;100
17950;BME280;9100;48.700;9.316;2023-11-18T04:24:11;98211.3;;;6.27;100
17950;BME280;9100;48.700;9.316;2023-11-18T04:25:11;98217.2;;;6.27;100
17950;BME280;9100;48.700;9.316;2023-11-18T04:26:11;98212;;;6.29;100
17950;BME280;9100;48.700;9.316;2023-11-18T04:27:11;98213.59999999999;;;6.3;100
17950;BME280;9100;48.700;9.316;2023-11-18T04:28:11;98214.4;;;6.3;100
17950;BME280;9100;48.700;9.316;2023-11-18T04:29:02;98212;;;6.29;100
17950;BME280;9100;48.700;9.316;2023-11-18T04:29:11;98209.5;;;6.29;100
17950;BME280;9100;48.700;9.316;2023-11-18T04:30:11;98215.20000000001;;;6.31;100
17950;BME280;9100;48.700;9.316;2023-11-18T04:31:11;98207.4;;;6.32;100
17950;BME280;9100;48.700;9.316;2023-11-18T04:32:11;98212.59999999999;;;6.31;100
17950;BME280;9100;48.700;9.316;2023-11-18T04:33:11;98206.1;;;6.28;100
17950;BME280;9100;48.700;9.316;2023-11-18T04:34:02;98207.2;;;6.26;100
17950;BME280;9100;48.700;9.316;2023-11-18T04:34:11;98209.7;;;6.26;100
17950;BME280;9100;48.700;9.316;2023-11-18T04:35:11;98208.8;;;6.27;100
17950;BME280;9100;48.700;9.316;2023-11-18T04:36:11;98210.40000000001;;;6.28;100
17950;BME280;9100;48.700;9.316;2023-11-18T04:37:11;98211.3;;;6.27;100
17950;BME280;9100;48.700;9.316;2023-11-18T04:38:11;98211.3;;;6.27;100
17950;BME280;9100;48.700;9.316;2023-11-18T04:39:02;98213;;;6.26;100